sensor_id;sensor_type;location;lat;lon;timestamp;temperature;humidity
34542;DHT22;20784;51.332;12.410;2023-05-10T00:02:05;12.30;1.00
34542;DHT22;20784;51.332;12.410;2023-05-10T00:04:36;12.20;1.00
34542;DHT22;20784;51.332;12.410;2023-05-10T00:07:01;12.20;1.00
34542;DHT22;20784;51.332;12.410;2023-05-10T00:09:32;12.20;1.00
34542;DHT22;20784;51.332;12.410;2023-05-10T00:11:57;12.20;1.00
34542;DHT22;20784;51.332;12.410;2023-05-10T00:14:26;12.20;1.00
34542;DHT22;20784;51.332;12.410;2023-05-10T00:16:55;12.20;1.00
34542;DHT22;20784;51.332;12.410;2023-05-10T00:19:47;12.10;99.90
34542;DHT22;20784;51.332;12.410;2023-05-10T00:22:17;12.00;1.00
34542;DHT22;20784;51.332;12.410;2023-05-10T00:24:43;12.00;1.00
34542;DHT22;20784;51.332;12.410;2023-05-10T00:27:12;11.90;1.00
34542;DHT22;20784;51.332;12.410;2023-05-10T00:29:37;11.80;99.90
34542;DHT22;20784;51.332;12.410;2023-05-10T00:32:06;11.70;99.90
34542;DHT22;20784;51.332;12.410;2023-05-10T00:34:35;11.80;1.00
34542;DHT22;20784;51.332;12.410;2023-05-10T00:37:03;11.80;1.00
34542;DHT22;20784;51.332;12.410;2023-05-10T00:39:34;11.80;1.00
34542;DHT22;20784;51.332;12.410;2023-05-10T00:42:02;11.70;1.00
34542;DHT22;20784;51.332;12.410;2023-05-10T00:44:29;11.70;1.00
34542;DHT22;20784;51.332;12.410;2023-05-10T00:47:02;11.60;20.20
34542;DHT22;20784;51.332;12.410;2023-05-10T00:49:28;11.50;99.90
34542;DHT22;20784;51.332;12.410;2023-05-10T00:51:54;11.40;99.90
34542;DHT22;20784;51.332;12.410;2023-05-10T00:54:21;11.40;99.90
34542;DHT22;20784;51.332;12.410;2023-05-10T00:56:55;11.50;99.90
34542;DHT22;20784;51.332;12.410;2023-05-10T00:59:22;11.50;99.90
34542;DHT22;20784;51.332;12.410;2023-05-10T01:01:48;11.40;99.90
34542;DHT22;20784;51.332;12.410;2023-05-10T01:04:19;11.50;99.90
34542;DHT22;20784;51.332;12.410;2023-05-10T01:06:51;11.40;99.90
34542;DHT22;20784;51.332;12.410;2023-05-10T01:09:17;11.50;99.90
34542;DHT22;20784;51.332;12.410;2023-05-10T01:11:43;11.50;99.90
34542;DHT22;20784;51.332;12.410;2023-05-10T01:17:31;11.40;99.90
34542;DHT22;20784;51.332;12.410;2023-05-10T01:20:00;11.50;91.80
34542;DHT22;20784;51.332;12.410;2023-05-10T01:22:44;11.50;15.80
34542;DHT22;20784;51.332;12.410;2023-05-10T01:25:37;11.40;79.70
34542;DHT22;20784;51.332;12.410;2023-05-10T01:31:22;11.50;1.00
34542;DHT22;20784;51.332;12.410;2023-05-10T01:34:20;11.50;1.00
34542;DHT22;20784;51.332;12.410;2023-05-10T01:36:58;11.50;1.00
34542;DHT22;20784;51.332;12.410;2023-05-10T01:39:45;11.50;1.00
34542;DHT22;20784;51.332;12.410;2023-05-10T01:42:21;11.40;1.00
34542;DHT22;20784;51.332;12.410;2023-05-10T01:44:58;11.40;1.00
34542;DHT22;20784;51.332;12.410;2023-05-10T01:47:31;11.30;27.10
34542;DHT22;20784;51.332;12.410;2023-05-10T01:50:03;11.30;91.80
34542;DHT22;20784;51.332;12.410;2023-05-10T01:52:36;11.30;99.90
34542;DHT22;20784;51.332;12.410;2023-05-10T01:55:09;11.20;99.90
34542;DHT22;20784;51.332;12.410;2023-05-10T01:57:37;11.10;99.90
34542;DHT22;20784;51.332;12.410;2023-05-10T02:00:06;11.20;99.90
34542;DHT22;20784;51.332;12.410;2023-05-10T02:02:42;11.20;99.90
34542;DHT22;20784;51.332;12.410;2023-05-10T02:05:13;11.20;99.90
34542;DHT22;20784;51.332;12.410;2023-05-10T02:07:39;11.20;99.90
34542;DHT22;20784;51.332;12.410;2023-05-10T02:10:06;11.20;99.90
34542;DHT22;20784;51.332;12.410;2023-05-10T02:12:45;11.20;99.90
34542;DHT22;20784;51.332;12.410;2023-05-10T02:15:17;11.20;99.90
34542;DHT22;20784;51.332;12.410;2023-05-10T02:17:45;11.20;99.90
34542;DHT22;20784;51.332;12.410;2023-05-10T02:20:12;11.30;99.90
34542;DHT22;20784;51.332;12.410;2023-05-10T02:22:45;11.20;99.90
34542;DHT22;20784;51.332;12.410;2023-05-10T02:25:13;11.20;99.90
34542;DHT22;20784;51.332;12.410;2023-05-10T02:27:43;11.20;99.90
34542;DHT22;20784;51.332;12.410;2023-05-10T02:30:15;11.20;99.90
34542;DHT22;20784;51.332;12.410;2023-05-10T02:32:41;11.20;99.90
34542;DHT22;20784;51.332;12.410;2023-05-10T02:35:11;11.10;99.90
34542;DHT22;20784;51.332;12.410;2023-05-10T02:37:38;11.20;99.90
34542;DHT22;20784;51.332;12.410;2023-05-10T02:40:08;11.20;99.90
34542;DHT22;20784;51.332;12.410;2023-05-10T02:42:38;11.20;99.90
34542;DHT22;20784;51.332;12.410;2023-05-10T02:45:10;11.20;99.90
34542;DHT22;20784;51.332;12.410;2023-05-10T02:47:41;11.10;99.90
34542;DHT22;20784;51.332;12.410;2023-05-10T02:50:08;11.10;99.90
34542;DHT22;20784;51.332;12.410;2023-05-10T02:52:46;11.10;99.90
34542;DHT22;20784;51.332;12.410;2023-05-10T02:55:26;11.10;99.90
34542;DHT22;20784;51.332;12.410;2023-05-10T02:57:58;11.00;99.90
34542;DHT22;20784;51.332;12.410;2023-05-10T03:00:25;11.00;99.90
34542;DHT22;20784;51.332;12.410;2023-05-10T03:02:54;10.90;99.90
34542;DHT22;20784;51.332;12.410;2023-05-10T03:05:20;10.90;99.90
34542;DHT22;20784;51.332;12.410;2023-05-10T03:07:47;10.90;99.90
34542;DHT22;20784;51.332;12.410;2023-05-10T03:10:15;11.00;99.90
34542;DHT22;20784;51.332;12.410;2023-05-10T03:18:42;11.00;99.90
34542;DHT22;20784;51.332;12.410;2023-05-10T03:21:18;11.00;99.90
34542;DHT22;20784;51.332;12.410;2023-05-10T03:24:02;11.00;99.90
34542;DHT22;20784;51.332;12.410;2023-05-10T03:26:34;11.00;99.90
34542;DHT22;20784;51.332;12.410;2023-05-10T03:29:01;11.00;99.90
34542;DHT22;20784;51.332;12.410;2023-05-10T03:31:29;11.10;99.90
34542;DHT22;20784;51.332;12.410;2023-05-10T03:33:55;11.10;99.90
34542;DHT22;20784;51.332;12.410;2023-05-10T03:36:21;11.20;99.90
34542;DHT22;20784;51.332;12.410;2023-05-10T03:38:47;11.20;99.90
34542;DHT22;20784;51.332;12.410;2023-05-10T03:41:12;11.10;99.90
34542;DHT22;20784;51.332;12.410;2023-05-10T03:43:40;11.10;99.90
34542;DHT22;20784;51.332;12.410;2023-05-10T03:46:09;11.10;99.90
34542;DHT22;20784;51.332;12.410;2023-05-10T03:48:37;11.10;99.90
34542;DHT22;20784;51.332;12.410;2023-05-10T03:51:10;11.20;99.90
34542;DHT22;20784;51.332;12.410;2023-05-10T03:53:38;11.20;99.90
34542;DHT22;20784;51.332;12.410;2023-05-10T03:56:04;11.10;99.90
34542;DHT22;20784;51.332;12.410;2023-05-10T03:58:30;11.10;99.90
34542;DHT22;20784;51.332;12.410;2023-05-10T04:01:04;11.20;99.90
34542;DHT22;20784;51.332;12.410;2023-05-10T04:03:29;11.10;99.90
34542;DHT22;20784;51.332;12.410;2023-05-10T04:06:02;11.20;99.90
34542;DHT22;20784;51.332;12.410;2023-05-10T04:08:28;11.20;99.90
34542;DHT22;20784;51.332;12.410;2023-05-10T04:10:54;11.10;99.90
34542;DHT22;20784;51.332;12.410;2023-05-10T04:13:20;11.20;99.90
34542;DHT22;20784;51.332;12.410;2023-05-10T04:15:47;11.30;99.90
34542;DHT22;20784;51.332;12.410;2023-05-10T04:18:13;11.30;99.90
34542;DHT22;20784;51.332;12.410;2023-05-10T04:20:39;11.30;99.90
34542;DHT22;20784;51.332;12.410;2023-05-10T04:23:05;11.40;99.90
34542;DHT22;20784;51.332;12.410;2023-05-10T04:25:34;11.40;99.90
34542;DHT22;20784;51.332;12.410;2023-05-10T04:28:00;11.40;99.90
34542;DHT22;20784;51.332;12.410;2023-05-10T04:30:25;11.50;99.90
34542;DHT22;20784;51.332;12.410;2023-05-10T04:32:53;11.50;99.90
34542;DHT22;20784;51.332;12.410;2023-05-10T04:35:19;11.50;99.90
34542;DHT22;20784;51.332;12.410;2023-05-10T04:37:47;11.50;99.90
34542;DHT22;20784;51.332;12.410;2023-05-10T04:40:48;11.60;99.90
34542;DHT22;20784;51.332;12.410;2023-05-10T04:43:23;11.60;99.90
34542;DHT22;20784;51.332;12.410;2023-05-10T04:45:48;11.60;99.90
34542;DHT22;20784;51.332;12.410;2023-05-10T04:48:15;11.70;88.20
34542;DHT22;20784;51.332;12.410;2023-05-10T04:50:43;11.80;11.30
34542;DHT22;20784;51.332;12.410;2023-05-10T04:53:09;11.90;1.00
34542;DHT22;20784;51.332;12.410;2023-05-10T04:55:36;11.90;1.00
34542;DHT22;20784;51.332;12.410;2023-05-10T04:58:02;12.00;1.00
34542;DHT22;20784;51.332;12.410;2023-05-10T05:00:28;12.10;1.00
34542;DHT22;20784;51.332;12.410;2023-05-10T05:02:53;12.20;1.00
34542;DHT22;20784;51.332;12.410;2023-05-10T05:05:19;12.40;1.00
34542;DHT22;20784;51.332;12.410;2023-05-10T05:07:45;12.40;99.90
34542;DHT22;20784;51.332;12.410;2023-05-10T05:10:11;12.50;99.90
34542;DHT22;20784;51.332;12.410;2023-05-10T05:12:36;12.70;99.90
34542;DHT22;20784;51.332;12.410;2023-05-10T05:15:02;12.70;99.90
34542;DHT22;20784;51.332;12.410;2023-05-10T05:17:30;12.80;99.90
34542;DHT22;20784;51.332;12.410;2023-05-10T05:19:58;12.80;99.90
34542;DHT22;20784;51.332;12.410;2023-05-10T05:22:23;12.90;99.90
34542;DHT22;20784;51.332;12.410;2023-05-10T05:24:56;13.00;1.00
34542;DHT22;20784;51.332;12.410;2023-05-10T05:27:23;13.20;1.00
34542;DHT22;20784;51.332;12.410;2023-05-10T05:29:53;13.30;1.00
34542;DHT22;20784;51.332;12.410;2023-05-10T05:32:19;13.40;99.90
34542;DHT22;20784;51.332;12.410;2023-05-10T05:34:47;13.50;99.90
34542;DHT22;20784;51.332;12.410;2023-05-10T05:37:28;13.60;99.90
34542;DHT22;20784;51.332;12.410;2023-05-10T05:39:56;13.70;14.80
34542;DHT22;20784;51.332;12.410;2023-05-10T05:42:22;13.90;1.00
34542;DHT22;20784;51.332;12.410;2023-05-10T05:44:48;13.90;1.00
34542;DHT22;20784;51.332;12.410;2023-05-10T05:47:13;14.00;99.90
34542;DHT22;20784;51.332;12.410;2023-05-10T05:49:39;14.20;1.00
34542;DHT22;20784;51.332;12.410;2023-05-10T05:52:04;14.10;1.00
34542;DHT22;20784;51.332;12.410;2023-05-10T05:54:30;14.10;99.90
34542;DHT22;20784;51.332;12.410;2023-05-10T05:56:57;14.20;99.90
34542;DHT22;20784;51.332;12.410;2023-05-10T05:59:23;14.20;99.90
34542;DHT22;20784;51.332;12.410;2023-05-10T06:01:49;14.20;99.90
34542;DHT22;20784;51.332;12.410;2023-05-10T06:04:15;14.30;99.90
34542;DHT22;20784;51.332;12.410;2023-05-10T06:06:41;14.30;99.90
34542;DHT22;20784;51.332;12.410;2023-05-10T06:09:07;14.40;99.90
34542;DHT22;20784;51.332;12.410;2023-05-10T06:11:34;14.50;99.90
34542;DHT22;20784;51.332;12.410;2023-05-10T06:14:05;14.50;17.70
34542;DHT22;20784;51.332;12.410;2023-05-10T06:16:33;14.60;99.90
34542;DHT22;20784;51.332;12.410;2023-05-10T06:18:59;14.60;99.90
34542;DHT22;20784;51.332;12.410;2023-05-10T06:21:27;14.60;99.90
34542;DHT22;20784;51.332;12.410;2023-05-10T06:23:55;14.70;99.90
34542;DHT22;20784;51.332;12.410;2023-05-10T06:26:26;14.70;99.90
34542;DHT22;20784;51.332;12.410;2023-05-10T06:29:12;14.80;99.90
34542;DHT22;20784;51.332;12.410;2023-05-10T06:31:40;14.80;99.90
34542;DHT22;20784;51.332;12.410;2023-05-10T06:34:15;15.00;27.60
34542;DHT22;20784;51.332;12.410;2023-05-10T06:36:43;15.10;1.00
34542;DHT22;20784;51.332;12.410;2023-05-10T06:39:09;15.20;1.00
34542;DHT22;20784;51.332;12.410;2023-05-10T06:41:37;15.30;1.00
34542;DHT22;20784;51.332;12.410;2023-05-10T06:44:08;15.40;1.00
34542;DHT22;20784;51.332;12.410;2023-05-10T06:46:41;15.40;1.00
34542;DHT22;20784;51.332;12.410;2023-05-10T06:49:20;15.60;99.90
34542;DHT22;20784;51.332;12.410;2023-05-10T06:51:55;15.70;99.90
34542;DHT22;20784;51.332;12.410;2023-05-10T06:54:30;15.90;79.90
34542;DHT22;20784;51.332;12.410;2023-05-10T06:56:56;16.10;1.00
34542;DHT22;20784;51.332;12.410;2023-05-10T06:59:21;16.20;99.90
34542;DHT22;20784;51.332;12.410;2023-05-10T07:01:47;16.20;99.90
34542;DHT22;20784;51.332;12.410;2023-05-10T07:04:13;16.20;99.90
34542;DHT22;20784;51.332;12.410;2023-05-10T07:06:39;16.30;99.90
34542;DHT22;20784;51.332;12.410;2023-05-10T07:09:04;16.50;1.00
34542;DHT22;20784;51.332;12.410;2023-05-10T07:11:30;16.50;1.00
34542;DHT22;20784;51.332;12.410;2023-05-10T07:13:56;16.60;1.00
34542;DHT22;20784;51.332;12.410;2023-05-10T07:16:21;16.70;1.00
34542;DHT22;20784;51.332;12.410;2023-05-10T07:18:50;16.50;99.90
34542;DHT22;20784;51.332;12.410;2023-05-10T07:21:16;16.70;99.90
34542;DHT22;20784;51.332;12.410;2023-05-10T07:23:45;16.70;99.90
34542;DHT22;20784;51.332;12.410;2023-05-10T07:26:13;16.80;99.90
34542;DHT22;20784;51.332;12.410;2023-05-10T07:28:40;17.00;59.90
34542;DHT22;20784;51.332;12.410;2023-05-10T07:31:08;17.20;1.00
34542;DHT22;20784;51.332;12.410;2023-05-10T07:33:36;17.50;1.00
34542;DHT22;20784;51.332;12.410;2023-05-10T07:36:02;17.70;99.90
34542;DHT22;20784;51.332;12.410;2023-05-10T07:38:27;17.90;99.90
34542;DHT22;20784;51.332;12.410;2023-05-10T07:40:55;18.00;99.90
34542;DHT22;20784;51.332;12.410;2023-05-10T07:43:21;18.10;99.90
34542;DHT22;20784;51.332;12.410;2023-05-10T07:45:49;18.20;5.00
34542;DHT22;20784;51.332;12.410;2023-05-10T07:48:15;18.20;64.70
34542;DHT22;20784;51.332;12.410;2023-05-10T07:50:41;18.10;1.00
34542;DHT22;20784;51.332;12.410;2023-05-10T07:53:12;18.00;15.70
34542;DHT22;20784;51.332;12.410;2023-05-10T07:55:37;18.00;48.90
34542;DHT22;20784;51.332;12.410;2023-05-10T07:58:03;18.00;50.10
34542;DHT22;20784;51.332;12.410;2023-05-10T08:00:31;18.10;99.90
34542;DHT22;20784;51.332;12.410;2023-05-10T08:03:00;18.10;7.90
34542;DHT22;20784;51.332;12.410;2023-05-10T08:05:33;17.90;99.90
34542;DHT22;20784;51.332;12.410;2023-05-10T08:07:59;17.90;99.90
34542;DHT22;20784;51.332;12.410;2023-05-10T08:10:25;17.90;99.90
34542;DHT22;20784;51.332;12.410;2023-05-10T08:12:53;17.80;99.90
34542;DHT22;20784;51.332;12.410;2023-05-10T08:15:19;17.90;99.90
34542;DHT22;20784;51.332;12.410;2023-05-10T08:17:44;18.00;99.90
34542;DHT22;20784;51.332;12.410;2023-05-10T08:20:10;18.00;99.90
34542;DHT22;20784;51.332;12.410;2023-05-10T08:22:38;18.10;99.90
34542;DHT22;20784;51.332;12.410;2023-05-10T08:25:04;18.20;99.90
34542;DHT22;20784;51.332;12.410;2023-05-10T08:27:30;18.30;99.90
34542;DHT22;20784;51.332;12.410;2023-05-10T08:29:58;17.90;99.90
34542;DHT22;20784;51.332;12.410;2023-05-10T08:32:24;17.60;1.00
34542;DHT22;20784;51.332;12.410;2023-05-10T08:34:49;17.30;99.90
34542;DHT22;20784;51.332;12.410;2023-05-10T08:37:15;17.10;99.90
34542;DHT22;20784;51.332;12.410;2023-05-10T08:39:41;16.90;19.40
34542;DHT22;20784;51.332;12.410;2023-05-10T08:42:07;16.80;99.90
34542;DHT22;20784;51.332;12.410;2023-05-10T08:44:35;16.50;99.90
34542;DHT22;20784;51.332;12.410;2023-05-10T08:47:06;16.40;99.90
34542;DHT22;20784;51.332;12.410;2023-05-10T08:49:40;16.30;80.40
34542;DHT22;20784;51.332;12.410;2023-05-10T08:52:11;16.10;1.00
34542;DHT22;20784;51.332;12.410;2023-05-10T08:54:38;16.00;1.00
34542;DHT22;20784;51.332;12.410;2023-05-10T08:57:06;16.00;99.90
34542;DHT22;20784;51.332;12.410;2023-05-10T08:59:32;16.00;1.00
34542;DHT22;20784;51.332;12.410;2023-05-10T09:01:58;15.80;1.00
34542;DHT22;20784;51.332;12.410;2023-05-10T09:04:25;15.80;99.90
34542;DHT22;20784;51.332;12.410;2023-05-10T09:06:51;15.80;99.90
34542;DHT22;20784;51.332;12.410;2023-05-10T09:09:17;15.70;99.90
34542;DHT22;20784;51.332;12.410;2023-05-10T09:11:44;15.70;99.90
34542;DHT22;20784;51.332;12.410;2023-05-10T09:14:13;15.70;1.00
34542;DHT22;20784;51.332;12.410;2023-05-10T09:16:40;15.60;1.00
34542;DHT22;20784;51.332;12.410;2023-05-10T09:19:07;15.60;1.00
34542;DHT22;20784;51.332;12.410;2023-05-10T09:21:40;15.40;1.00
34542;DHT22;20784;51.332;12.410;2023-05-10T09:24:07;15.30;1.00
34542;DHT22;20784;51.332;12.410;2023-05-10T09:26:33;15.20;1.00
34542;DHT22;20784;51.332;12.410;2023-05-10T09:29:01;15.20;1.00
34542;DHT22;20784;51.332;12.410;2023-05-10T09:31:51;15.10;9.00
34542;DHT22;20784;51.332;12.410;2023-05-10T09:34:18;14.90;43.90
34542;DHT22;20784;51.332;12.410;2023-05-10T09:36:55;14.70;82.40
34542;DHT22;20784;51.332;12.410;2023-05-10T09:39:33;14.50;94.60
34542;DHT22;20784;51.332;12.410;2023-05-10T09:42:06;14.40;97.50
34542;DHT22;20784;51.332;12.410;2023-05-10T09:44:33;14.30;99.90
34542;DHT22;20784;51.332;12.410;2023-05-10T09:46:59;14.40;99.90
34542;DHT22;20784;51.332;12.410;2023-05-10T09:49:25;14.30;99.90
34542;DHT22;20784;51.332;12.410;2023-05-10T09:52:05;14.30;99.90
34542;DHT22;20784;51.332;12.410;2023-05-10T09:54:31;14.30;99.90
34542;DHT22;20784;51.332;12.410;2023-05-10T09:56:57;14.20;99.90
34542;DHT22;20784;51.332;12.410;2023-05-10T09:59:25;14.30;99.90
34542;DHT22;20784;51.332;12.410;2023-05-10T10:01:55;14.20;99.90
34542;DHT22;20784;51.332;12.410;2023-05-10T10:04:21;14.20;99.90
34542;DHT22;20784;51.332;12.410;2023-05-10T10:06:59;14.30;99.90
34542;DHT22;20784;51.332;12.410;2023-05-10T10:09:25;14.20;99.90
34542;DHT22;20784;51.332;12.410;2023-05-10T10:11:51;14.20;99.90
34542;DHT22;20784;51.332;12.410;2023-05-10T10:14:18;14.20;99.90
34542;DHT22;20784;51.332;12.410;2023-05-10T10:16:48;14.20;99.90
34542;DHT22;20784;51.332;12.410;2023-05-10T10:19:15;14.10;99.90
34542;DHT22;20784;51.332;12.410;2023-05-10T10:21:40;14.20;99.90
34542;DHT22;20784;51.332;12.410;2023-05-10T10:24:06;14.30;99.90
34542;DHT22;20784;51.332;12.410;2023-05-10T10:26:35;14.40;99.90
34542;DHT22;20784;51.332;12.410;2023-05-10T10:29:25;14.40;99.90
34542;DHT22;20784;51.332;12.410;2023-05-10T10:34:32;14.40;99.90
34542;DHT22;20784;51.332;12.410;2023-05-10T10:37:05;14.50;99.90
34542;DHT22;20784;51.332;12.410;2023-05-10T10:39:33;14.60;99.90
34542;DHT22;20784;51.332;12.410;2023-05-10T10:42:04;14.60;99.90
34542;DHT22;20784;51.332;12.410;2023-05-10T10:49:49;14.60;99.90
34542;DHT22;20784;51.332;12.410;2023-05-10T10:52:40;14.70;99.90
34542;DHT22;20784;51.332;12.410;2023-05-10T10:55:11;14.90;99.90
34542;DHT22;20784;51.332;12.410;2023-05-10T11:05:34;14.80;99.90
34542;DHT22;20784;51.332;12.410;2023-05-10T11:08:27;14.80;99.90
34542;DHT22;20784;51.332;12.410;2023-05-10T11:16:22;14.70;99.90
34542;DHT22;20784;51.332;12.410;2023-05-10T11:19:07;14.90;99.90
34542;DHT22;20784;51.332;12.410;2023-05-10T11:21:48;14.90;99.90
34542;DHT22;20784;51.332;12.410;2023-05-10T11:24:21;14.80;99.90
34542;DHT22;20784;51.332;12.410;2023-05-10T11:26:50;14.80;99.90
34542;DHT22;20784;51.332;12.410;2023-05-10T11:29:18;14.90;99.90
34542;DHT22;20784;51.332;12.410;2023-05-10T11:31:47;15.00;99.90
34542;DHT22;20784;51.332;12.410;2023-05-10T11:34:29;14.90;99.90
34542;DHT22;20784;51.332;12.410;2023-05-10T11:36:56;15.00;99.90
34542;DHT22;20784;51.332;12.410;2023-05-10T11:39:34;15.10;99.90
34542;DHT22;20784;51.332;12.410;2023-05-10T11:42:00;15.20;99.90
34542;DHT22;20784;51.332;12.410;2023-05-10T11:44:30;15.20;99.90
34542;DHT22;20784;51.332;12.410;2023-05-10T11:47:01;15.10;99.90
34542;DHT22;20784;51.332;12.410;2023-05-10T11:49:27;15.10;99.90
34542;DHT22;20784;51.332;12.410;2023-05-10T11:51:53;15.10;99.90
34542;DHT22;20784;51.332;12.410;2023-05-10T11:54:18;15.10;99.90
34542;DHT22;20784;51.332;12.410;2023-05-10T11:56:46;15.20;99.90
34542;DHT22;20784;51.332;12.410;2023-05-10T11:59:14;15.30;99.90
34542;DHT22;20784;51.332;12.410;2023-05-10T12:01:41;15.30;99.90
34542;DHT22;20784;51.332;12.410;2023-05-10T12:04:06;15.30;99.90
34542;DHT22;20784;51.332;12.410;2023-05-10T12:06:37;15.30;99.90
34542;DHT22;20784;51.332;12.410;2023-05-10T12:09:07;15.40;99.90
34542;DHT22;20784;51.332;12.410;2023-05-10T12:11:40;15.40;99.90
34542;DHT22;20784;51.332;12.410;2023-05-10T12:14:08;15.50;99.90
34542;DHT22;20784;51.332;12.410;2023-05-10T12:16:34;15.50;99.90
34542;DHT22;20784;51.332;12.410;2023-05-10T12:19:01;15.60;99.90
34542;DHT22;20784;51.332;12.410;2023-05-10T12:21:30;15.60;99.90
34542;DHT22;20784;51.332;12.410;2023-05-10T12:24:02;15.60;99.90
34542;DHT22;20784;51.332;12.410;2023-05-10T12:26:30;15.60;99.90
34542;DHT22;20784;51.332;12.410;2023-05-10T12:29:18;15.50;99.90
34542;DHT22;20784;51.332;12.410;2023-05-10T12:32:13;15.50;99.90
34542;DHT22;20784;51.332;12.410;2023-05-10T12:34:39;15.60;99.90
34542;DHT22;20784;51.332;12.410;2023-05-10T12:37:04;15.70;99.90
34542;DHT22;20784;51.332;12.410;2023-05-10T12:42:05;15.80;99.90
34542;DHT22;20784;51.332;12.410;2023-05-10T12:44:31;16.00;99.90
34542;DHT22;20784;51.332;12.410;2023-05-10T12:46:57;16.00;99.90
34542;DHT22;20784;51.332;12.410;2023-05-10T12:49:22;16.10;99.90
34542;DHT22;20784;51.332;12.410;2023-05-10T12:51:48;16.00;99.90
34542;DHT22;20784;51.332;12.410;2023-05-10T12:54:13;16.00;99.90
34542;DHT22;20784;51.332;12.410;2023-05-10T12:56:39;15.80;99.90
34542;DHT22;20784;51.332;12.410;2023-05-10T12:59:06;15.90;99.90
34542;DHT22;20784;51.332;12.410;2023-05-10T13:01:36;15.90;99.90
34542;DHT22;20784;51.332;12.410;2023-05-10T13:04:02;15.80;99.90
34542;DHT22;20784;51.332;12.410;2023-05-10T13:06:27;15.90;99.90
34542;DHT22;20784;51.332;12.410;2023-05-10T13:08:53;16.10;99.90
34542;DHT22;20784;51.332;12.410;2023-05-10T13:11:19;16.00;99.90
34542;DHT22;20784;51.332;12.410;2023-05-10T13:13:46;16.20;99.90
34542;DHT22;20784;51.332;12.410;2023-05-10T13:16:12;16.40;99.90
34542;DHT22;20784;51.332;12.410;2023-05-10T13:18:37;16.30;99.90
34542;DHT22;20784;51.332;12.410;2023-05-10T13:21:03;16.50;99.90
34542;DHT22;20784;51.332;12.410;2023-05-10T13:23:30;16.50;99.90
34542;DHT22;20784;51.332;12.410;2023-05-10T13:25:59;16.60;99.90
34542;DHT22;20784;51.332;12.410;2023-05-10T13:28:27;16.50;99.90
34542;DHT22;20784;51.332;12.410;2023-05-10T13:30:53;16.70;99.90
34542;DHT22;20784;51.332;12.410;2023-05-10T13:33:18;16.70;99.90
34542;DHT22;20784;51.332;12.410;2023-05-10T13:35:47;16.80;99.90
34542;DHT22;20784;51.332;12.410;2023-05-10T13:38:21;16.80;99.90
34542;DHT22;20784;51.332;12.410;2023-05-10T13:40:47;16.80;99.90
34542;DHT22;20784;51.332;12.410;2023-05-10T13:43:15;16.90;99.90
34542;DHT22;20784;51.332;12.410;2023-05-10T13:45:44;16.90;99.90
34542;DHT22;20784;51.332;12.410;2023-05-10T13:48:10;17.10;99.90
34542;DHT22;20784;51.332;12.410;2023-05-10T13:50:35;17.10;99.90
34542;DHT22;20784;51.332;12.410;2023-05-10T13:53:01;17.10;99.90
34542;DHT22;20784;51.332;12.410;2023-05-10T13:55:26;17.10;99.90
34542;DHT22;20784;51.332;12.410;2023-05-10T13:57:52;17.00;99.90
34542;DHT22;20784;51.332;12.410;2023-05-10T14:00:18;16.90;99.90
34542;DHT22;20784;51.332;12.410;2023-05-10T14:02:43;16.90;99.90
34542;DHT22;20784;51.332;12.410;2023-05-10T14:05:12;16.90;99.90
34542;DHT22;20784;51.332;12.410;2023-05-10T14:07:38;16.80;99.90
34542;DHT22;20784;51.332;12.410;2023-05-10T14:10:03;16.80;99.90
34542;DHT22;20784;51.332;12.410;2023-05-10T14:12:29;16.90;99.90
34542;DHT22;20784;51.332;12.410;2023-05-10T14:14:55;17.00;99.90
34542;DHT22;20784;51.332;12.410;2023-05-10T14:17:21;17.00;99.90
34542;DHT22;20784;51.332;12.410;2023-05-10T14:19:47;16.90;99.90
34542;DHT22;20784;51.332;12.410;2023-05-10T14:22:13;16.90;99.90
34542;DHT22;20784;51.332;12.410;2023-05-10T14:24:40;17.00;99.90
34542;DHT22;20784;51.332;12.410;2023-05-10T14:27:09;17.20;99.90
34542;DHT22;20784;51.332;12.410;2023-05-10T14:29:35;17.30;99.90
34542;DHT22;20784;51.332;12.410;2023-05-10T14:32:01;17.20;99.90
34542;DHT22;20784;51.332;12.410;2023-05-10T14:34:27;17.20;99.90
34542;DHT22;20784;51.332;12.410;2023-05-10T14:36:56;17.30;99.90
34542;DHT22;20784;51.332;12.410;2023-05-10T14:39:22;17.30;99.90
34542;DHT22;20784;51.332;12.410;2023-05-10T14:41:50;17.20;99.90
34542;DHT22;20784;51.332;12.410;2023-05-10T14:44:17;17.20;99.90
34542;DHT22;20784;51.332;12.410;2023-05-10T14:46:44;17.10;99.90
34542;DHT22;20784;51.332;12.410;2023-05-10T14:49:12;17.00;99.90
34542;DHT22;20784;51.332;12.410;2023-05-10T14:52:14;16.80;99.90
34542;DHT22;20784;51.332;12.410;2023-05-10T14:54:42;16.90;99.90
34542;DHT22;20784;51.332;12.410;2023-05-10T14:57:10;16.90;99.90
34542;DHT22;20784;51.332;12.410;2023-05-10T14:59:38;17.00;99.90
34542;DHT22;20784;51.332;12.410;2023-05-10T15:02:14;17.00;99.90
34542;DHT22;20784;51.332;12.410;2023-05-10T15:04:43;17.00;99.90
34542;DHT22;20784;51.332;12.410;2023-05-10T15:07:11;16.90;99.90
34542;DHT22;20784;51.332;12.410;2023-05-10T15:09:39;16.80;99.90
34542;DHT22;20784;51.332;12.410;2023-05-10T15:12:10;16.70;99.90
34542;DHT22;20784;51.332;12.410;2023-05-10T15:15:05;16.40;99.90
34542;DHT22;20784;51.332;12.410;2023-05-10T15:17:34;16.10;99.90
34542;DHT22;20784;51.332;12.410;2023-05-10T15:20:02;15.90;99.90
34542;DHT22;20784;51.332;12.410;2023-05-10T15:22:31;15.70;99.90
34542;DHT22;20784;51.332;12.410;2023-05-10T15:24:57;15.50;99.90
34542;DHT22;20784;51.332;12.410;2023-05-10T15:27:24;15.40;99.90
34542;DHT22;20784;51.332;12.410;2023-05-10T15:29:49;15.40;99.90
34542;DHT22;20784;51.332;12.410;2023-05-10T15:32:15;15.30;99.90
34542;DHT22;20784;51.332;12.410;2023-05-10T15:34:41;15.30;99.90
34542;DHT22;20784;51.332;12.410;2023-05-10T15:37:12;15.20;99.90
34542;DHT22;20784;51.332;12.410;2023-05-10T15:39:38;15.20;99.90
34542;DHT22;20784;51.332;12.410;2023-05-10T15:42:06;15.30;99.90
34542;DHT22;20784;51.332;12.410;2023-05-10T15:44:32;15.30;99.90
34542;DHT22;20784;51.332;12.410;2023-05-10T15:47:00;15.30;99.90
34542;DHT22;20784;51.332;12.410;2023-05-10T15:49:26;15.40;99.90
34542;DHT22;20784;51.332;12.410;2023-05-10T15:51:58;15.40;99.90
34542;DHT22;20784;51.332;12.410;2023-05-10T15:54:23;15.50;99.90
34542;DHT22;20784;51.332;12.410;2023-05-10T15:56:49;15.40;99.90
34542;DHT22;20784;51.332;12.410;2023-05-10T15:59:15;15.40;99.90
34542;DHT22;20784;51.332;12.410;2023-05-10T16:01:40;15.50;99.90
34542;DHT22;20784;51.332;12.410;2023-05-10T16:04:06;15.50;99.90
34542;DHT22;20784;51.332;12.410;2023-05-10T16:06:32;15.60;99.90